Time;durP1;ratioP1;P1;durP2;ratioP2;P2;SDS_P1;SDS_P2;PMS_P1;PMS_P2;Temp;Humidity;BMP_temperature;BMP_pressure;BME280_temperature;BME280_humidity;BME280_pressure;Samples;Min_cycle;Max_cycle;Signal;HPM_P1;HPM_P2
2023/06/29 00:02:24;;;;;;;5.53;5.00;;;16.50;99.90;;;16.81;74.96;95117.00;4984112;28;20470;-58
2023/06/29 00:04:54;;;;;;;6.00;5.50;;;16.50;99.90;;;16.80;75.00;95121.47;4986980;28;20878;-58
2023/06/29 00:07:24;;;;;;;6.83;5.83;;;16.50;99.90;;;16.80;75.06;95113.50;4985061;28;20517;-73
2023/06/29 00:09:54;;;;;;;7.27;5.53;;;16.50;99.90;;;16.79;75.38;95130.44;4981975;28;20482;-74
2023/06/29 00:12:21;;;;;;;5.03;4.80;;;16.50;99.90;;;16.79;75.26;95124.28;4985825;28;20462;-57
2023/06/29 00:14:49;;;;;;;5.33;4.93;;;16.50;99.90;;;16.78;74.89;95123.47;4984787;28;20508;-74
2023/06/29 00:17:16;;;;;;;5.20;4.80;;;16.50;99.90;;;16.78;75.13;95125.31;4982157;28;21375;-73
2023/06/29 00:19:47;;;;;;;5.30;5.00;;;16.50;99.90;;;16.78;75.50;95126.13;4982648;28;20540;-59
2023/06/29 00:22:14;;;;;;;5.83;5.33;;;16.50;99.90;;;16.79;75.31;95119.81;4986339;28;20461;-75
2023/06/29 00:24:43;;;;;;;5.63;5.23;;;16.50;99.90;;;16.80;75.13;95113.50;4989811;28;20569;-59
2023/06/29 00:27:12;;;;;;;5.53;5.03;;;16.50;99.90;;;16.79;75.29;95109.19;4988456;28;20561;-74
2023/06/29 00:29:42;;;;;;;5.40;5.10;;;16.50;99.90;;;16.80;75.22;95102.06;4994060;28;20479;-73
2023/06/29 00:32:10;;;;;;;4.67;4.00;;;16.50;99.90;;;16.79;75.17;95101.22;4987956;28;20473;-57
2023/06/29 00:34:37;;;;;;;5.30;4.90;;;16.50;99.90;;;16.78;75.30;95099.56;4988634;28;20529;-58
2023/06/29 00:37:05;;;;;;;4.70;4.40;;;16.50;99.90;;;16.78;74.92;95098.75;4988310;28;20462;-72
2023/06/29 00:39:32;;;;;;;5.87;5.40;;;16.50;99.90;;;16.77;74.72;95105.88;4987736;28;21010;-57
2023/06/29 00:41:59;;;;;;;6.03;5.50;;;16.50;99.90;;;16.76;74.93;95096.25;4987170;28;20458;-74
2023/06/29 00:44:28;;;;;;;5.27;4.27;;;16.50;99.90;;;16.75;75.01;95099.91;4989277;28;21411;-57
2023/06/29 00:46:55;;;;;;;4.80;4.50;;;16.40;99.90;;;16.76;75.37;95098.91;4988065;28;20837;-74
2023/06/29 00:49:23;;;;;;;4.93;4.57;;;16.40;99.90;;;16.77;75.04;95110.38;4988872;28;20493;-73
2023/06/29 00:51:51;;;;;;;4.63;4.33;;;16.50;99.90;;;16.76;75.36;95100.72;4988751;28;20521;-57
2023/06/29 00:54:19;;;;;;;5.73;4.93;;;16.50;99.90;;;16.76;75.10;95101.56;4988737;28;21159;-73
2023/06/29 00:56:46;;;;;;;5.43;4.93;;;16.40;99.90;;;16.76;75.23;95106.88;4988051;28;20887;-72
2023/06/29 00:59:13;;;;;;;5.27;4.90;;;16.50;99.90;;;16.76;75.08;95098.06;4988546;28;20531;-73
2023/06/29 01:01:42;;;;;;;5.37;4.93;;;16.40;99.90;;;16.74;74.99;95095.59;4995934;28;20470;-74
2023/06/29 01:04:10;;;;;;;13.80;5.53;;;16.50;99.90;;;16.75;75.13;95105.22;4993625;28;20469;-74
2023/06/29 01:06:41;;;;;;;6.13;5.53;;;16.40;99.90;;;16.74;74.88;95106.22;4992876;28;20577;-59
2023/06/29 01:09:09;;;;;;;6.50;6.00;;;16.40;99.90;;;16.73;74.99;95109.03;4994582;28;20454;-57
2023/06/29 01:11:36;;;;;;;5.60;5.20;;;16.40;99.90;;;16.73;75.01;95109.88;4989146;28;20461;-74
2023/06/29 01:14:05;;;;;;;6.77;6.17;;;16.40;99.90;;;16.72;74.94;95112.72;4989489;28;20461;-59
2023/06/29 01:16:33;;;;;;;6.70;6.10;;;16.40;99.90;;;16.67;74.72;95108.72;4988212;28;20591;-74
2023/06/29 01:19:04;;;;;;;6.20;5.70;;;16.40;99.90;;;16.68;74.54;95109.56;4987690;28;20883;-74
2023/06/29 01:21:31;;;;;;;6.67;5.97;;;16.40;99.90;;;16.66;74.64;95108.91;4987552;28;20476;-74
2023/06/29 01:23:59;;;;;;;6.00;5.53;;;16.30;99.90;;;16.62;74.67;95112.91;4987234;28;20454;-58
2023/06/29 01:26:28;;;;;;;12.10;6.00;;;16.30;99.90;;;16.57;74.29;95109.94;4987916;28;20494;-73
2023/06/29 01:28:56;;;;;;;8.70;5.70;;;16.30;99.90;;;16.58;74.45;95111.59;4986595;28;20458;-58
2023/06/29 01:31:26;;;;;;;6.00;5.50;;;16.30;99.90;;;16.55;74.33;95103.97;5008793;28;20470;-59
2023/06/29 01:33:54;;;;;;;6.53;6.03;;;16.30;99.90;;;16.51;74.25;95106.13;4989117;28;20513;-59
2023/06/29 01:36:24;;;;;;;6.20;5.70;;;16.20;99.90;;;16.47;74.12;95108.31;4987711;28;20965;-60
2023/06/29 01:38:56;;;;;;;7.07;6.47;;;16.20;99.90;;;16.44;74.43;95111.28;4988092;28;20455;-76
2023/06/29 01:41:23;;;;;;;6.77;6.17;;;16.20;99.90;;;16.40;74.23;95109.97;4986731;28;20460;-77
2023/06/29 01:43:52;;;;;;;7.80;7.07;;;16.10;99.90;;;16.35;74.53;95107.00;4988117;28;20454;-59
2023/06/29 01:46:19;;;;;;;6.60;6.00;;;16.10;99.90;;;16.34;74.36;95115.13;4987637;28;20980;-59
2023/06/29 01:48:46;;;;;;;6.60;6.10;;;16.10;99.90;;;16.30;74.31;95109.34;4987573;28;21028;-75
2023/06/29 01:51:14;;;;;;;7.47;6.77;;;16.00;99.90;;;16.29;74.37;95105.03;4986607;28;20494;-76
2023/06/29 01:53:41;;;;;;;6.27;5.77;;;16.00;99.90;;;16.27;74.40;95099.06;4986820;28;20466;-58
2023/06/29 01:56:09;;;;;;;7.00;6.40;;;16.00;99.90;;;16.25;74.44;95093.94;4980916;28;20474;-73
2023/06/29 01:58:36;;;;;;;6.33;5.83;;;16.00;99.90;;;16.24;74.46;95099.41;4987033;28;20467;-75
2023/06/29 02:01:05;;;;;;;6.83;6.30;;;15.90;99.90;;;16.21;74.37;95108.53;4986491;28;20486;-75
2023/06/29 02:03:32;;;;;;;7.57;6.97;;;15.90;99.90;;;16.17;74.13;95098.41;4983797;28;20591;-74
2023/06/29 02:05:59;;;;;;;8.80;7.33;;;15.90;99.90;;;16.18;74.18;95110.69;4986404;28;20541;-57
2023/06/29 02:08:27;;;;;;;13.60;6.70;;;15.90;99.90;;;16.14;74.10;95110.19;4987325;28;20459;-73
2023/06/29 02:10:54;;;;;;;7.07;6.37;;;15.90;99.90;;;16.13;74.17;95113.84;4986190;28;20809;-74
2023/06/29 02:13:21;;;;;;;8.27;6.63;;;15.80;99.90;;;16.11;74.06;95114.03;4986966;28;21418;-59
2023/06/29 02:15:49;;;;;;;7.50;6.90;;;15.80;99.90;;;16.09;73.97;95107.22;4987373;28;20486;-74
2023/06/29 02:18:17;;;;;;;8.60;6.90;;;15.80;99.90;;;16.08;73.82;95106.41;4986384;28;20516;-59
2023/06/29 02:20:45;;;;;;;7.20;6.60;;;15.80;99.90;;;16.06;73.85;95112.84;4985409;28;20485;-58
2023/06/29 02:23:12;;;;;;;7.53;6.70;;;15.80;99.90;;;16.05;73.80;95108.53;4985560;28;20482;-73
2023/06/29 02:25:39;;;;;;;7.03;6.43;;;15.80;99.90;;;16.03;73.88;95102.59;4986578;28;20509;-58
2023/06/29 02:28:06;;;;;;;9.00;7.63;;;15.80;99.90;;;15.99;73.56;95110.06;4985738;28;21034;-58
2023/06/29 02:30:34;;;;;;;8.03;7.33;;;15.70;99.90;;;15.96;73.57;95107.75;4985431;28;20486;-73
2023/06/29 02:33:02;;;;;;;7.80;6.80;;;15.70;99.90;;;15.94;73.67;95110.56;4986798;28;20462;-75
2023/06/29 02:35:30;;;;;;;10.00;6.90;;;15.70;99.90;;;15.91;73.72;95099.44;4986530;28;20493;-72
2023/06/29 02:37:58;;;;;;;8.20;6.53;;;15.60;99.90;;;15.87;73.57;95109.56;4985453;28;20473;-74
2023/06/29 02:40:25;;;;;;;9.43;7.17;;;15.60;99.90;;;15.86;73.71;95107.06;4987096;28;20471;-59
2023/06/29 02:42:52;;;;;;;8.10;7.30;;;15.60;99.90;;;15.84;73.80;95103.75;4986742;28;20487;-75
2023/06/29 02:45:19;;;;;;;7.57;6.40;;;15.60;99.90;;;15.83;73.78;95115.34;4987319;28;20478;-72
2023/06/29 02:47:47;;;;;;;7.30;6.60;;;15.50;99.90;;;15.80;73.76;95107.72;4985357;28;20490;-75
2023/06/29 02:50:15;;;;;;;6.43;5.87;;;15.50;99.90;;;15.79;73.63;95114.06;4990717;28;20470;-59
2023/06/29 02:52:43;;;;;;;7.67;6.37;;;15.50;99.90;;;15.77;73.80;95120.34;4985340;28;20461;-58
2023/06/29 02:55:11;;;;;;;7.07;6.37;;;15.50;99.90;;;15.77;73.81;95116.88;4986472;28;20505;-73
2023/06/29 02:57:38;;;;;;;9.20;7.07;;;15.50;99.90;;;15.76;73.81;95118.66;4986298;28;20533;-59
2023/06/29 03:00:08;;;;;;;7.70;7.00;;;15.50;99.90;;;15.76;73.69;95117.81;4986582;28;20482;-59
2023/06/29 03:02:35;;;;;;;7.70;7.00;;;15.50;99.90;;;15.76;73.62;95126.59;4986218;28;20462;-74
2023/06/29 03:05:02;;;;;;;7.47;6.70;;;15.50;99.90;;;15.76;73.97;95118.66;4986812;28;20541;-73
2023/06/29 03:07:30;;;;;;;9.73;6.30;;;15.50;99.90;;;15.76;73.92;95128.44;4984369;28;20501;-74
2023/06/29 03:09:58;;;;;;;6.97;6.40;;;15.50;99.90;;;15.76;73.96;95129.25;4986910;28;20998;-60
2023/06/29 03:12:25;;;;;;;7.67;6.30;;;15.50;99.90;;;15.76;73.90;95125.78;4984358;28;20466;-74
2023/06/29 03:14:53;;;;;;;10.07;6.93;;;15.50;99.90;;;15.77;73.80;95122.19;4986449;28;20478;-73
2023/06/29 03:17:20;;;;;;;8.47;7.50;;;15.50;99.90;;;15.77;73.71;95130.94;4984564;28;20458;-57
2023/06/29 03:19:47;;;;;;;7.50;6.80;;;15.50;99.90;;;15.80;73.97;95126.31;4985484;28;20601;-57
2023/06/29 03:22:15;;;;;;;7.63;6.60;;;15.50;99.90;;;15.82;73.92;95127.81;4986779;28;20879;-59
2023/06/29 03:24:42;;;;;;;7.33;6.63;;;15.50;99.90;;;15.84;73.68;95124.97;4986886;28;20474;-59
2023/06/29 03:27:11;;;;;;;8.13;7.33;;;15.60;99.90;;;15.86;73.93;95128.28;4984510;28;20490;-58
2023/06/29 03:29:38;;;;;;;8.63;6.90;;;15.60;99.90;;;15.87;73.89;95127.31;4985998;28;20564;-74
2023/06/29 03:32:06;;;;;;;12.90;8.00;;;15.60;99.90;;;15.88;73.56;95131.59;4983544;28;20459;-58
2023/06/29 03:34:34;;;;;;;11.20;8.60;;;15.60;99.90;;;15.89;73.72;95135.91;4987475;28;20521;-73
2023/06/29 03:37:01;;;;;;;13.63;9.60;;;15.60;99.90;;;15.91;73.57;95141.88;4984934;28;20962;-74
2023/06/29 03:39:29;;;;;;;8.47;7.70;;;15.60;99.90;;;15.93;73.63;95137.25;4986585;28;20545;-74
2023/06/29 03:41:56;;;;;;;14.63;8.40;;;15.60;99.90;;;15.94;73.34;95137.09;4985793;28;20462;-57
2023/06/29 03:44:24;;;;;;;10.70;9.60;;;15.60;99.90;;;15.97;73.47;95143.88;4986936;28;20494;-58
2023/06/29 03:46:53;;;;;;;8.50;7.80;;;15.70;99.90;;;15.98;73.67;95132.25;4985691;28;20490;-57
2023/06/29 03:49:20;;;;;;;8.50;7.70;;;15.70;99.90;;;15.98;73.77;95142.06;4982607;28;20474;-57
2023/06/29 03:51:47;;;;;;;9.13;8.33;;;15.70;99.90;;;16.00;73.70;95140.88;4985880;28;20466;-57
2023/06/29 03:54:14;;;;;;;15.60;13.93;;;15.70;99.90;;;16.03;73.45;95139.72;4986332;28;20483;-74
2023/06/29 03:56:42;;;;;;;10.13;8.90;;;15.80;99.90;;;16.07;73.52;95139.22;4985813;28;20462;-76
2023/06/29 03:59:09;;;;;;;11.87;7.87;;;15.80;99.90;;;16.10;73.10;95151.34;4988790;28;20465;-75
2023/06/29 04:01:38;;;;;;;10.13;7.90;;;15.80;99.90;;;16.13;73.07;95148.34;4990872;28;20466;-74
2023/06/29 04:04:06;;;;;;;12.00;9.20;;;15.80;99.90;;;16.17;73.03;95157.63;4991133;28;20455;-73
2023/06/29 04:06:33;;;;;;;9.13;8.23;;;15.90;99.90;;;16.19;73.06;95149.50;4994210;28;20457;-58
2023/06/29 04:09:00;;;;;;;9.40;8.40;;;15.90;99.90;;;16.21;72.95;95148.34;4993110;28;20470;-62
2023/06/29 04:11:27;;;;;;;9.10;8.20;;;15.90;99.90;;;16.25;72.85;95149.66;4993570;28;20454;-74
2023/06/29 04:13:55;;;;;;;10.83;8.57;;;15.90;99.90;;;16.29;73.00;95150.16;4990477;28;20466;-58
2023/06/29 04:16:22;;;;;;;10.17;8.27;;;16.00;99.90;;;16.32;72.69;95139.19;4990894;28;20462;-74
2023/06/29 04:18:51;;;;;;;12.47;9.30;;;16.00;99.90;;;16.37;73.01;95147.47;4989205;28;20557;-57
2023/06/29 04:21:18;;;;;;;10.10;8.60;;;16.00;99.90;;;16.43;73.01;95145.97;4987476;28;20541;-59
2023/06/29 04:23:45;;;;;;;10.23;8.30;;;16.10;99.90;;;16.49;73.00;95146.13;4988596;28;20454;-73
2023/06/29 04:26:13;;;;;;;9.77;8.87;;;16.20;99.90;;;16.54;72.68;95137.66;4989266;28;20473;-58
2023/06/29 04:28:44;;;;;;;11.43;9.93;;;16.20;99.90;;;16.60;72.50;95138.81;4989452;28;20615;-58
2023/06/29 04:31:12;;;;;;;12.10;8.50;;;16.30;99.90;;;16.68;72.83;95144.09;4988165;28;20865;-59
2023/06/29 04:33:39;;;;;;;13.10;9.40;;;16.30;99.90;;;16.76;72.38;95140.56;4986515;28;20577;-74
2023/06/29 04:36:08;;;;;;;9.63;8.73;;;16.40;99.90;;;16.81;72.12;95143.56;4989542;28;20544;-60
2023/06/29 04:38:36;;;;;;;11.50;9.70;;;16.50;99.90;;;16.86;72.11;95143.91;4989129;28;20473;-71
2023/06/29 04:41:04;;;;;;;12.73;10.00;;;16.50;99.90;;;16.94;71.64;95149.16;4988893;28;20892;-73
2023/06/29 04:43:32;;;;;;;11.53;9.67;;;16.60;99.90;;;17.00;71.48;95156.47;4987131;28;20482;-61
2023/06/29 04:46:00;;;;;;;13.43;9.80;;;16.70;99.90;;;17.03;71.37;95152.63;4987866;28;20566;-59
2023/06/29 04:48:32;;;;;;;10.03;9.10;;;16.70;99.90;;;17.03;71.05;95145.47;4986871;28;20490;-72
2023/06/29 04:51:05;;;;;;;10.70;9.60;;;16.70;99.90;;;17.05;70.62;95149.81;4986709;28;20574;-73
2023/06/29 04:53:34;;;;;;;12.73;10.47;;;16.70;99.90;;;17.07;70.87;95156.63;4990061;28;20439;-73
2023/06/29 04:56:02;;;;;;;13.53;10.17;;;16.70;99.90;;;17.09;70.95;95151.94;4988520;28;21176;-58
2023/06/29 04:58:29;;;;;;;11.30;10.00;;;16.80;99.90;;;17.13;70.13;95161.19;4992906;28;20546;-58
2023/06/29 05:00:57;;;;;;;12.43;10.27;;;16.80;99.90;;;17.14;70.46;95160.22;5008369;28;20482;-57
2023/06/29 05:03:25;;;;;;;11.87;9.57;;;16.80;99.90;;;17.17;69.93;95159.06;4988960;28;20466;-58
2023/06/29 05:05:52;;;;;;;12.23;10.17;;;16.90;99.90;;;17.22;70.34;95166.50;4986228;28;20998;-59
2023/06/29 05:08:20;;;;;;;17.33;11.10;;;16.90;99.90;;;17.24;69.47;95164.50;4989447;28;21105;-73
2023/06/29 05:10:48;;;;;;;11.57;9.90;;;16.90;99.90;;;17.26;70.11;95168.66;4988087;28;20640;-58
2023/06/29 05:13:16;;;;;;;12.33;9.90;;;16.90;99.90;;;17.33;69.79;95164.25;4989027;28;20454;-59
2023/06/29 05:15:47;;;;;;;11.73;10.57;;;17.00;99.90;;;17.38;69.71;95166.41;4988807;28;20479;-72
2023/06/29 05:18:15;;;;;;;17.43;10.13;;;17.00;99.90;;;17.48;69.49;95175.00;4988963;28;20954;-59
2023/06/29 05:20:42;;;;;;;12.00;10.80;;;17.10;99.90;;;17.60;69.29;95169.28;4986063;28;20474;-72
2023/06/29 05:23:11;;;;;;;12.60;10.50;;;17.20;99.90;;;17.71;69.21;95171.53;4989435;28;20513;-59
2023/06/29 05:25:39;;;;;;;19.50;11.17;;;17.30;99.90;;;17.78;68.38;95183.13;4988300;28;20467;-73
2023/06/29 05:28:08;;;;;;;11.50;10.40;;;17.40;99.90;;;17.81;68.43;95180.09;4985901;28;20556;-58
2023/06/29 05:30:35;;;;;;;14.23;10.73;;;17.40;99.90;;;17.88;68.23;95178.44;4988094;28;20474;-59
2023/06/29 05:33:03;;;;;;;11.00;9.90;;;17.50;99.90;;;18.00;68.71;95178.00;4987737;28;20451;-61
2023/06/29 05:35:31;;;;;;;11.60;10.40;;;17.60;99.90;;;18.14;68.50;95182.56;4987823;28;20482;-73
2023/06/29 05:37:59;;;;;;;12.00;8.83;;;17.70;99.90;;;18.23;68.15;95181.50;4990796;28;20462;-58
2023/06/29 05:40:26;;;;;;;12.80;10.47;;;17.80;99.90;;;18.26;67.19;95186.47;4987923;28;20467;-71
2023/06/29 05:42:53;;;;;;;15.03;9.30;;;17.90;99.90;;;18.30;67.24;95184.25;4991020;28;20509;-72
2023/06/29 05:45:22;;;;;;;13.50;10.10;;;17.90;99.90;;;18.35;67.37;95181.06;4988353;28;21023;-58
2023/06/29 05:47:49;;;;;;;10.10;9.10;;;18.00;99.90;;;18.41;67.24;95191.00;4987939;28;21535;-59
2023/06/29 05:50:17;;;;;;;11.60;9.03;;;18.00;99.90;;;18.48;66.10;95183.91;4988098;28;20546;-71
2023/06/29 05:52:44;;;;;;;10.50;9.50;;;18.10;99.90;;;18.50;66.27;95187.25;4989733;28;20482;-58
2023/06/29 05:55:11;;;;;;;9.80;8.30;;;18.10;99.90;;;18.53;65.73;95189.53;4990277;28;20493;-57
2023/06/29 05:57:38;;;;;;;13.70;9.03;;;18.20;99.90;;;18.59;65.78;95191.50;4988069;28;20561;-59
2023/06/29 06:00:10;;;;;;;9.67;8.77;;;18.20;99.90;;;18.76;65.15;95191.31;4987742;28;20972;-60
2023/06/29 06:02:38;;;;;;;10.17;9.17;;;18.30;99.90;;;18.95;65.47;95188.13;4988120;28;20477;-58
2023/06/29 06:05:07;;;;;;;9.90;8.90;;;18.50;99.90;;;19.15;64.93;95176.91;4987181;28;20510;-58
2023/06/29 06:07:35;;;;;;;9.77;8.77;;;18.70;99.90;;;19.30;64.88;95185.72;4984399;28;20490;-71
2023/06/29 06:10:02;;;;;;;9.03;8.10;;;18.80;99.90;;;19.40;64.89;95187.28;4988297;28;20478;-60
2023/06/29 06:12:30;;;;;;;9.33;8.43;;;19.00;99.90;;;19.50;64.27;95193.13;4987234;28;20501;-73
2023/06/29 06:14:57;;;;;;;10.93;9.93;;;19.10;99.90;;;19.68;64.55;95184.72;4988662;28;20474;-60
2023/06/29 06:17:24;;;;;;;9.50;8.50;;;19.20;99.90;;;19.88;63.99;95187.63;4988552;28;20462;-73
2023/06/29 06:19:54;;;;;;;16.77;9.10;;;19.40;99.90;;;20.03;63.82;95188.41;4988172;28;20474;-73
2023/06/29 06:22:21;;;;;;;10.50;9.13;;;19.60;99.90;;;20.16;63.30;95186.88;4989390;28;20868;-72
2023/06/29 06:24:49;;;;;;;10.27;8.40;;;19.70;99.90;;;20.27;62.51;95188.22;4988338;28;20474;-58
2023/06/29 06:27:16;;;;;;;10.50;9.00;;;19.80;99.90;;;20.31;62.41;95184.13;4988112;28;21038;-73
2023/06/29 06:29:43;;;;;;;9.73;8.70;;;19.90;99.90;;;20.32;62.09;95186.59;4987479;28;20540;-59
2023/06/29 06:32:11;;;;;;;10.30;9.27;;;19.90;99.90;;;20.38;62.06;95187.69;4986735;28;20462;-74
2023/06/29 06:34:38;;;;;;;11.20;8.40;;;20.00;99.90;;;20.55;61.98;95185.56;4989041;28;20509;-72
2023/06/29 06:37:07;;;;;;;9.40;8.53;;;20.10;99.90;;;20.72;61.58;95186.94;4999252;28;20517;-71
2023/06/29 06:39:35;;;;;;;10.20;8.17;;;20.20;99.90;;;20.87;61.06;95194.03;4981087;28;20474;-59
2023/06/29 06:42:02;;;;;;;9.00;7.83;;;20.40;99.90;;;21.08;60.65;95188.59;4987223;28;20455;-60
2023/06/29 06:44:29;;;;;;;9.03;8.13;;;20.50;99.90;;;21.35;59.96;95201.28;4986266;28;20478;-60
2023/06/29 06:46:57;;;;;;;7.90;7.30;;;20.80;99.90;;;21.57;59.61;95194.81;4992438;28;20519;-72
2023/06/29 06:49:24;;;;;;;8.53;7.70;;;21.00;99.90;;;21.71;58.76;95186.84;4989103;28;20978;-73
2023/06/29 06:51:51;;;;;;;10.80;7.67;;;21.20;99.90;;;21.89;57.97;95187.09;4988523;28;20459;-73
2023/06/29 06:54:20;;;;;;;7.53;6.93;;;21.40;99.90;;;22.02;57.21;95192.47;4988147;28;20526;-72
2023/06/29 06:56:48;;;;;;;7.63;6.90;;;21.50;99.50;;;22.22;57.30;95185.50;4988811;28;20480;-60
2023/06/29 06:59:15;;;;;;;7.03;6.53;;;21.70;99.50;;;22.36;56.85;95184.53;4989310;28;20664;-60
2023/06/29 07:01:43;;;;;;;8.30;7.50;;;21.80;99.30;;;22.46;56.59;95184.91;4990848;28;20892;-70
2023/06/29 07:04:11;;;;;;;7.47;6.80;;;21.90;99.00;;;22.63;56.03;95187.19;4988570;28;20475;-72
2023/06/29 07:06:38;;;;;;;11.23;6.23;;;22.00;98.80;;;22.80;54.02;95180.34;4987002;28;20482;-60
2023/06/29 07:09:07;;;;;;;6.87;6.13;;;22.20;97.30;;;22.98;54.20;95178.91;4986634;28;20494;-73
2023/06/29 07:11:37;;;;;;;5.50;5.00;;;22.40;97.40;;;23.17;54.74;95172.69;4983483;28;20962;-60
2023/06/29 07:14:05;;;;;;;6.30;5.70;;;22.50;97.30;;;23.38;53.92;95176.94;4986780;28;20530;-60
2023/06/29 07:16:32;;;;;;;6.40;5.90;;;22.80;96.70;;;23.55;53.41;95179.16;4986786;28;20958;-71
2023/06/29 07:19:04;;;;;;;7.10;5.47;;;22.90;95.80;;;23.69;53.00;95185.31;4986822;28;20986;-73
2023/06/29 07:21:31;;;;;;;5.10;4.70;;;23.00;95.80;;;23.84;52.33;95180.47;4987481;28;20478;-58
2023/06/29 07:23:58;;;;;;;5.77;5.27;;;23.20;95.30;;;23.99;52.67;95177.50;4985797;28;20461;-59
2023/06/29 07:26:26;;;;;;;5.20;4.80;;;23.40;95.20;;;24.12;52.08;95177.44;4983040;28;20544;-59
2023/06/29 07:28:54;;;;;;;7.43;5.00;;;23.50;95.00;;;24.31;52.30;95181.03;4987123;28;20877;-58
2023/06/29 07:31:25;;;;;;;5.27;4.90;;;23.70;94.70;;;24.49;51.57;95177.59;4987189;28;20457;-72
2023/06/29 07:33:53;;;;;;;5.50;5.00;;;23.80;94.60;;;24.66;50.96;95174.34;4983475;28;20941;-71
2023/06/29 07:36:21;;;;;;;10.13;4.57;;;24.00;94.20;;;24.85;51.13;95177.94;4985687;28;21024;-58
2023/06/29 07:38:48;;;;;;;5.93;4.17;;;24.20;93.50;;;25.04;50.06;95174.19;4986511;28;20454;-59
2023/06/29 07:41:16;;;;;;;4.40;4.00;;;24.40;93.20;;;25.23;50.16;95174.22;4986124;28;21014;-59
2023/06/29 07:43:46;;;;;;;6.73;4.20;;;24.60;92.80;;;25.40;49.57;95177.16;4988903;28;20489;-72
2023/06/29 07:46:15;;;;;;;4.00;3.70;;;24.80;92.60;;;25.60;49.69;95168.84;4987917;28;20545;-59
2023/06/29 07:48:43;;;;;;;6.67;3.73;;;24.90;92.30;;;25.74;49.20;95164.91;4986613;28;20493;-60
2023/06/29 07:51:11;;;;;;;4.77;4.33;;;25.10;91.80;;;25.92;48.65;95171.34;4986446;28;20565;-73
2023/06/29 07:53:38;;;;;;;5.87;4.63;;;25.30;91.20;;;26.04;47.78;95163.31;4987118;28;20473;-58
2023/06/29 07:56:05;;;;;;;5.90;4.13;;;25.40;90.50;;;26.14;45.80;95170.84;4986338;28;20477;-72
2023/06/29 07:58:33;;;;;;;7.70;5.93;;;25.50;86.90;;;26.19;47.51;95165.59;4986971;28;20457;-72
2023/06/29 08:01:00;;;;;;;7.63;4.30;;;25.60;89.20;;;26.20;47.26;95161.84;4985410;28;20568;-59
2023/06/29 08:03:29;;;;;;;6.63;5.70;;;25.60;88.10;;;26.10;47.46;95163.22;4984720;28;20511;-72
2023/06/29 08:05:57;;;;;;;4.20;3.90;;;25.50;87.90;;;26.02;47.69;95166.22;4986411;28;20501;-73
2023/06/29 08:08:28;;;;;;;6.80;4.60;;;25.50;87.80;;;26.05;47.96;95168.47;4986237;28;21055;-59
2023/06/29 08:10:56;;;;;;;11.90;4.40;;;25.50;88.40;;;26.18;47.79;95169.31;4986822;28;20529;-59
2023/06/29 08:13:24;;;;;;;5.90;4.00;;;25.60;88.00;;;26.26;47.12;95160.91;4987042;28;20517;-73
2023/06/29 08:15:51;;;;;;;4.03;3.73;;;25.60;86.70;;;26.27;46.67;95162.53;4986785;28;20517;-59
2023/06/29 08:18:18;;;;;;;7.23;3.87;;;25.60;86.30;;;26.26;44.94;95163.63;4987717;28;20469;-73
2023/06/29 08:20:47;;;;;;;7.13;5.00;;;25.70;82.90;;;26.34;46.82;95160.56;4987390;28;20482;-58
2023/06/29 08:23:15;;;;;;;8.70;5.73;;;25.70;85.60;;;26.49;46.53;95160.13;4986511;28;20455;-58
2023/06/29 08:25:42;;;;;;;4.47;4.10;;;25.90;84.80;;;26.65;46.05;95164.88;4987601;28;20501;-70
2023/06/29 08:28:10;;;;;;;3.10;2.80;;;26.00;84.30;;;26.86;45.88;95154.53;4986778;28;20462;-58
2023/06/29 08:30:37;;;;;;;3.40;3.20;;;26.20;83.40;;;27.12;45.14;95157.81;4985951;28;20469;-58
2023/06/29 08:33:04;;;;;;;6.10;3.70;;;26.40;82.30;;;27.39;44.92;95158.16;4984699;28;20454;-71
2023/06/29 08:35:32;;;;;;;3.87;2.63;;;26.70;81.00;;;27.58;44.56;95158.00;4983164;28;20470;-72
2023/06/29 08:38:01;;;;;;;6.30;4.50;;;26.90;80.10;;;27.76;44.29;95157.00;4987145;28;20614;-61
2023/06/29 08:40:28;;;;;;;5.27;3.07;;;27.10;79.40;;;27.95;43.65;95154.91;4986243;28;20516;-72
2023/06/29 08:42:56;;;;;;;4.83;3.77;;;27.30;79.00;;;28.09;43.48;95153.59;4986241;28;20468;-58
2023/06/29 08:45:23;;;;;;;3.40;2.70;;;27.40;77.70;;;28.22;43.16;95147.84;4988890;28;20472;-71
2023/06/29 08:47:52;;;;;;;4.70;2.77;;;27.60;77.50;;;28.35;43.13;95156.72;4989335;28;21360;-73
2023/06/29 08:50:21;;;;;;;3.57;3.37;;;27.70;76.10;;;28.45;42.43;95148.78;4989213;28;20519;-59
2023/06/29 08:52:48;;;;;;;3.70;3.40;;;27.90;75.50;;;28.35;42.27;95149.44;4989533;28;20541;-72
2023/06/29 08:55:17;;;;;;;4.33;3.17;;;27.80;74.20;;;28.16;41.80;95142.63;4989697;28;20509;-60
2023/06/29 08:57:44;;;;;;;3.07;2.87;;;27.70;73.50;;;28.02;42.27;95139.41;4988909;28;20473;-59
2023/06/29 09:00:13;;;;;;;3.50;3.13;;;27.60;73.80;;;28.08;41.84;95144.63;4989296;28;20485;-72
2023/06/29 09:02:40;;;;;;;2.50;2.30;;;27.60;72.30;;;28.24;42.51;95144.91;4987659;28;20517;-60
2023/06/29 09:05:11;;;;;;;5.60;2.60;;;27.70;73.20;;;28.36;42.07;95139.44;4988789;28;20478;-73
2023/06/29 09:07:40;;;;;;;4.63;3.00;;;27.80;72.10;;;28.54;41.33;95141.09;4988821;28;21069;-71
2023/06/29 09:10:10;;;;;;;3.33;3.03;;;27.90;71.80;;;28.72;41.52;95126.50;4989181;28;20622;-69
2023/06/29 09:12:39;;;;;;;3.10;2.90;;;28.10;72.30;;;28.84;41.42;95131.81;4988796;28;20462;-60
2023/06/29 09:15:09;;;;;;;2.90;2.70;;;28.20;72.00;;;28.89;42.08;95132.72;4988693;28;20544;-60
2023/06/29 09:17:37;;;;;;;3.93;3.53;;;28.30;71.90;;;28.90;41.89;95133.53;4987371;28;20686;-58
2023/06/29 09:20:13;;;;;;;5.00;2.30;;;28.40;71.20;;;28.97;39.68;95124.16;4987502;28;20557;-59
2023/06/29 09:22:40;;;;;;;2.60;2.40;;;28.40;67.90;;;29.05;39.94;95127.50;4986896;28;21081;-58
2023/06/29 09:25:10;;;;;;;2.63;2.20;;;28.50;68.00;;;29.14;40.98;95117.88;4988456;28;20223;-59
2023/06/29 09:27:39;;;;;;;5.27;2.40;;;28.50;68.40;;;29.21;39.88;95115.84;4988329;28;20207;-60
2023/06/29 09:30:08;;;;;;;3.17;2.43;;;28.60;68.10;;;29.25;40.28;95114.28;4988103;28;20289;-59
2023/06/29 09:32:38;;;;;;;4.17;3.03;;;28.70;67.30;;;29.22;39.87;95125.63;4987646;28;20237;-59
2023/06/29 09:35:09;;;;;;;2.37;2.27;;;28.60;67.10;;;29.17;39.57;95117.38;4990181;28;20229;-60
2023/06/29 09:37:37;;;;;;;2.23;2.13;;;28.60;66.20;;;29.23;39.51;95110.97;4988781;28;20206;-70
2023/06/29 09:40:09;;;;;;;3.43;2.20;;;28.70;66.50;;;29.29;39.88;95109.16;4989618;28;20250;-59
2023/06/29 09:42:38;;;;;;;3.43;3.07;;;28.70;66.40;;;29.33;39.79;95108.41;4988452;28;20282;-59
2023/06/29 09:45:11;;;;;;;6.10;2.27;;;28.80;65.90;;;29.45;39.73;95116.44;4991398;28;20219;-59
2023/06/29 09:47:41;;;;;;;5.10;2.47;;;28.80;65.60;;;29.52;40.05;95118.94;4988225;28;20206;-58
2023/06/29 09:50:18;;;;;;;2.47;2.20;;;28.90;65.50;;;29.61;38.70;95108.47;4987502;28;20239;-74
2023/06/29 09:52:46;;;;;;;2.40;2.20;;;29.00;64.60;;;29.67;39.96;95110.97;4987900;28;20203;-71
2023/06/29 09:55:14;;;;;;;2.17;1.97;;;29.10;65.10;;;29.63;39.00;95109.84;4987152;28;20638;-60
2023/06/29 09:57:43;;;;;;;9.50;2.50;;;29.10;64.60;;;29.58;36.92;95106.28;4985401;28;20213;-59
2023/06/29 10:00:13;;;;;;;2.67;2.47;;;29.10;61.60;;;29.49;38.97;95111.31;4988577;28;20317;-73
2023/06/29 10:02:41;;;;;;;4.23;2.20;;;29.00;62.70;;;29.48;38.87;95112.38;4986587;28;20219;-59
2023/06/29 10:05:09;;;;;;;2.50;2.30;;;28.90;63.40;;;29.46;39.80;95109.09;4987198;28;20234;-59
2023/06/29 10:07:36;;;;;;;1.87;1.77;;;28.90;63.90;;;29.42;39.07;95107.97;4987391;28;20211;-70
2023/06/29 10:10:05;;;;;;;2.23;2.07;;;28.90;62.40;;;29.43;38.91;95110.41;4988904;28;20238;-70
2023/06/29 10:12:34;;;;;;;3.10;2.77;;;28.90;62.50;;;29.46;39.12;95100.97;4988658;28;20214;-58
2023/06/29 10:15:08;;;;;;;2.70;2.20;;;28.80;63.40;;;29.39;39.14;95093.03;4989899;28;20214;-59
2023/06/29 10:17:42;;;;;;;2.67;2.47;;;28.80;63.10;;;29.31;38.36;95097.00;4988172;28;20196;-70
2023/06/29 10:20:10;;;;;;;3.33;2.17;;;28.80;62.10;;;29.24;38.65;95090.16;4988236;28;20318;-71
2023/06/29 10:22:38;;;;;;;2.60;2.40;;;28.70;61.30;;;29.12;38.81;95082.91;4988289;28;20262;-63